Time;durP1;ratioP1;P1;durP2;ratioP2;P2;SDS_P1;SDS_P2;PMS_P1;PMS_P2;Temp;Humidity;BMP_temperature;BMP_pressure;BME280_temperature;BME280_humidity;BME280_pressure;Samples;Min_cycle;Max_cycle;Signal;HPM_P1;HPM_P2
2020/12/28 00:01:04;;;;;;;13.20;6.90;;;23.00;28.70;;;;;;6174395;27;80925;-54
2020/12/28 00:04:05;;;;;;;13.52;6.15;;;23.00;28.70;;;;;;6150103;28;81508;-43
2020/12/28 00:07:05;;;;;;;10.05;5.97;;;23.00;28.70;;;;;;6167744;28;80822;-44
2020/12/28 00:10:06;;;;;;;10.88;5.90;;;23.00;28.60;;;;;;6174758;28;81356;-43
2020/12/28 00:13:06;;;;;;;9.98;5.35;;;23.00;28.60;;;;;;6169519;28;81635;-43
2020/12/28 00:16:07;;;;;;;10.57;5.82;;;23.00;28.60;;;;;;6166292;28;81492;-44
2020/12/28 00:19:07;;;;;;;9.35;5.00;;;23.00;28.70;;;;;;6167530;27;80810;-46
2020/12/28 00:22:08;;;;;;;10.57;5.20;;;23.00;28.60;;;;;;6167954;28;80899;-47
2020/12/28 00:25:08;;;;;;;8.05;4.70;;;22.90;28.60;;;;;;6166206;28;80855;-43
2020/12/28 00:28:09;;;;;;;6.18;4.18;;;22.90;28.80;;;;;;6178809;28;82067;-43
2020/12/28 00:31:09;;;;;;;8.27;3.80;;;22.90;28.60;;;;;;6168380;28;80663;-45
2020/12/28 00:34:10;;;;;;;7.22;4.28;;;22.90;28.80;;;;;;6168175;27;81485;-45
2020/12/28 00:37:10;;;;;;;6.53;3.67;;;22.90;28.80;;;;;;6166601;28;80805;-47
2020/12/28 00:40:11;;;;;;;5.57;3.80;;;22.90;28.90;;;;;;6177305;28;80720;-46
2020/12/28 00:43:11;;;;;;;7.82;3.88;;;22.90;29.00;;;;;;6167403;28;80196;-45
2020/12/28 00:46:12;;;;;;;6.28;3.60;;;22.90;29.20;;;;;;6168257;27;81037;-46
2020/12/28 00:49:12;;;;;;;5.25;3.30;;;22.90;29.30;;;;;;6179318;28;80605;-46
2020/12/28 00:52:13;;;;;;;4.57;2.95;;;22.90;29.40;;;;;;6159542;28;83487;-48
2020/12/28 00:55:13;;;;;;;4.22;2.78;;;22.90;29.50;;;;;;6165778;28;80778;-48
2020/12/28 00:58:15;;;;;;;4.45;2.80;;;22.90;29.50;;;;;;6168891;28;82601;-46
2020/12/28 01:01:24;;;;;;;5.05;2.67;;;22.90;29.70;;;;;;6151278;28;82383;-44
2020/12/28 01:04:25;;;;;;;4.00;2.55;;;22.90;29.90;;;;;;6151949;28;83469;-46
2020/12/28 01:07:29;;;;;;;5.82;2.17;;;22.90;30.00;;;;;;6161678;28;80459;-46
2020/12/28 01:10:36;;;;;;;4.57;2.40;;;22.90;31.20;;;;;;6160613;28;83337;-44
2020/12/28 01:13:39;;;;;;;4.10;2.20;;;22.90;30.90;;;;;;6176803;28;83670;-46
2020/12/28 01:16:41;;;;;;;4.05;2.10;;;22.90;30.80;;;;;;6171901;28;82732;-48
2020/12/28 01:19:41;;;;;;;4.32;2.50;;;22.90;30.60;;;;;;6190322;28;80432;-46
2020/12/28 01:22:43;;;;;;;5.03;3.00;;;22.90;30.60;;;;;;6176757;28;83195;-44
2020/12/28 01:25:43;;;;;;;3.85;2.38;;;22.90;30.70;;;;;;6177511;27;81242;-46
2020/12/28 01:28:44;;;;;;;2.63;1.80;;;22.90;30.60;;;;;;6176682;28;81464;-45
2020/12/28 01:31:45;;;;;;;3.50;2.00;;;22.90;30.60;;;;;;6181924;27;80920;-47
2020/12/28 01:34:48;;;;;;;3.88;1.95;;;22.90;30.40;;;;;;6178962;28;83290;-43
2020/12/28 01:37:49;;;;;;;3.08;2.00;;;22.90;30.60;;;;;;6178361;28;82086;-45
2020/12/28 01:40:50;;;;;;;2.65;1.85;;;22.90;31.00;;;;;;6180155;28;83323;-44
2020/12/28 01:44:11;;;;;;;2.40;1.63;;;22.90;30.60;;;;;;6180793;28;80815;-44
2020/12/28 01:47:15;;;;;;;2.83;1.67;;;22.80;30.40;;;;;;6176907;28;82895;-45
2020/12/28 01:50:16;;;;;;;2.88;1.77;;;22.80;30.50;;;;;;6179930;28;80881;-46
2020/12/28 01:53:18;;;;;;;2.55;1.80;;;22.80;30.50;;;;;;6179718;28;82838;-44
2020/12/28 01:56:25;;;;;;;3.15;2.13;;;22.80;30.40;;;;;;6176128;28;81159;-43
2020/12/28 01:59:27;;;;;;;2.28;1.40;;;22.80;30.40;;;;;;6180242;28;81238;-44
2020/12/28 02:02:30;;;;;;;2.22;1.38;;;22.80;30.60;;;;;;6178367;27;83186;-44
2020/12/28 02:05:31;;;;;;;2.58;1.20;;;22.70;30.40;;;;;;6179814;28;82735;-43
2020/12/28 02:08:31;;;;;;;3.03;1.38;;;22.80;30.70;;;;;;6180457;28;83182;-45
2020/12/28 02:11:33;;;;;;;1.70;1.20;;;22.70;30.60;;;;;;6180260;28;83087;-45
2020/12/28 02:14:35;;;;;;;1.88;1.23;;;22.80;30.80;;;;;;6180978;28;83292;-45
2020/12/28 02:17:50;;;;;;;1.55;1.33;;;22.70;30.60;;;;;;6178606;28;83616;-48
2020/12/28 02:21:01;;;;;;;1.38;0.88;;;22.70;30.70;;;;;;6178987;28;81425;-45
2020/12/28 02:24:02;;;;;;;1.45;1.08;;;22.80;30.80;;;;;;6182570;28;81049;-44
2020/12/28 02:27:04;;;;;;;1.45;1.25;;;22.70;30.80;;;;;;6179559;27;82953;-43
2020/12/28 02:30:05;;;;;;;1.52;1.10;;;22.70;30.70;;;;;;6180454;28;83165;-44
2020/12/28 02:33:15;;;;;;;1.25;0.80;;;22.70;30.80;;;;;;6177772;28;82572;-43
2020/12/28 02:36:26;;;;;;;2.40;1.30;;;22.80;31.00;;;;;;6177102;28;84394;-47
2020/12/28 02:39:27;;;;;;;1.83;1.10;;;22.70;31.10;;;;;;6174384;28;83592;-45
2020/12/28 02:42:28;;;;;;;3.22;1.15;;;22.70;31.50;;;;;;6163245;28;83655;-45
2020/12/28 02:45:47;;;;;;;1.60;1.00;;;22.80;31.60;;;;;;6179049;28;80901;-43
2020/12/28 02:49:06;;;;;;;1.58;1.20;;;22.70;31.20;;;;;;6178287;27;84000;-44
2020/12/28 02:52:25;;;;;;;1.45;0.88;;;22.70;31.10;;;;;;6177159;28;80630;-43
2020/12/28 02:55:44;;;;;;;1.27;0.70;;;22.70;31.10;;;;;;6179885;28;80732;-46
2020/12/28 02:59:04;;;;;;;1.55;0.93;;;22.70;31.10;;;;;;6160673;28;80964;-43
2020/12/28 03:02:23;;;;;;;1.10;0.88;;;22.70;31.30;;;;;;6165568;28;80310;-45
2020/12/28 03:05:42;;;;;;;2.10;0.90;;;22.70;31.30;;;;;;6148989;28;82281;-43
2020/12/28 03:09:01;;;;;;;2.17;1.10;;;22.70;31.30;;;;;;6163012;28;81002;-44
2020/12/28 03:12:20;;;;;;;1.35;0.95;;;22.70;31.40;;;;;;6151915;28;80685;-44
2020/12/28 03:15:39;;;;;;;1.50;0.85;;;22.70;31.30;;;;;;6078696;28;84703;-43
2020/12/28 03:18:58;;;;;;;1.27;0.80;;;22.60;31.20;;;;;;6139587;28;80693;-44
2020/12/28 03:22:28;;;;;;;1.70;0.63;;;22.70;31.70;;;;;;6101857;28;80816;-44
2020/12/28 03:25:57;;;;;;;0.70;0.50;;;22.70;32.40;;;;;;6093965;28;80450;-45
2020/12/28 03:29:16;;;;;;;1.45;0.70;;;22.70;31.60;;;;;;6148690;28;80602;-45
2020/12/28 03:32:37;;;;;;;0.70;0.60;;;22.70;31.50;;;;;;6134738;28;81482;-45
2020/12/28 03:35:56;;;;;;;0.90;0.65;;;22.70;31.60;;;;;;6153061;28;80611;-45
2020/12/28 03:39:15;;;;;;;0.90;0.60;;;22.70;31.50;;;;;;6163298;28;80694;-44
2020/12/28 03:42:34;;;;;;;1.02;0.80;;;22.70;31.60;;;;;;6178344;28;85164;-51
2020/12/28 03:45:53;;;;;;;0.60;0.60;;;22.70;31.60;;;;;;6178761;28;83117;-46
2020/12/28 03:49:27;;;;;;;1.15;0.75;;;22.70;32.10;;;;;;6133614;28;80073;-48
2020/12/28 03:52:46;;;;;;;0.88;0.50;;;22.70;32.40;;;;;;6179065;28;80522;-47
2020/12/28 03:56:05;;;;;;;0.50;0.50;;;22.70;31.80;;;;;;6170046;28;80817;-47
2020/12/28 03:59:24;;;;;;;0.95;0.70;;;22.70;31.90;;;;;;6167804;28;80548;-51
2020/12/28 04:02:43;;;;;;;0.77;0.55;;;22.70;32.20;;;;;;6168029;28;80469;-45
2020/12/28 04:06:02;;;;;;;0.77;0.55;;;22.70;32.00;;;;;;6148738;28;80856;-46
2020/12/28 04:09:23;;;;;;;1.70;0.60;;;22.70;32.20;;;;;;6135586;28;80535;-47
2020/12/28 04:12:42;;;;;;;0.70;0.50;;;22.70;32.50;;;;;;6177855;28;84827;-46
2020/12/28 04:15:43;;;;;;;0.65;0.52;;;22.70;32.00;;;;;;6178497;28;80098;-46
2020/12/28 04:18:43;;;;;;;0.50;0.45;;;22.70;32.60;;;;;;6164875;28;81712;-48
2020/12/28 04:21:44;;;;;;;0.77;0.45;;;22.70;32.30;;;;;;6153373;28;80558;-46
2020/12/28 04:24:44;;;;;;;0.65;0.40;;;22.70;32.10;;;;;;6155042;28;80512;-43
2020/12/28 04:27:45;;;;;;;0.73;0.35;;;22.70;32.30;;;;;;6177749;28;80579;-44
2020/12/28 04:30:45;;;;;;;0.90;0.60;;;22.70;32.30;;;;;;6179010;28;80381;-44
2020/12/28 04:33:45;;;;;;;1.00;0.65;;;22.70;32.40;;;;;;6192233;28;81632;-43
2020/12/28 04:36:46;;;;;;;0.60;0.50;;;22.70;32.80;;;;;;6175874;27;81491;-46
2020/12/28 04:39:47;;;;;;;0.68;0.50;;;22.70;32.60;;;;;;6183034;28;81463;-45
2020/12/28 04:42:47;;;;;;;0.77;0.40;;;22.70;33.00;;;;;;6173789;28;80480;-42
2020/12/28 04:45:48;;;;;;;0.45;0.43;;;22.60;32.40;;;;;;6165405;28;81455;-46
2020/12/28 04:48:48;;;;;;;1.08;0.52;;;22.70;32.50;;;;;;6167600;28;80798;-45
2020/12/28 04:51:49;;;;;;;0.60;0.47;;;22.70;32.10;;;;;;6166093;28;80760;-46
2020/12/28 04:54:49;;;;;;;1.33;0.77;;;22.70;32.10;;;;;;6164686;28;80657;-46
2020/12/28 04:57:50;;;;;;;1.15;0.70;;;22.70;32.10;;;;;;6166646;28;80953;-46
2020/12/28 05:00:50;;;;;;;0.90;0.40;;;22.70;32.60;;;;;;6166504;28;80675;-48
2020/12/28 05:03:50;;;;;;;0.77;0.57;;;22.70;31.90;;;;;;6143864;28;82343;-45
2020/12/28 05:06:51;;;;;;;0.75;0.50;;;22.70;31.70;;;;;;6174093;27;80830;-45
2020/12/28 05:09:51;;;;;;;0.77;0.50;;;22.70;31.70;;;;;;6172527;28;80319;-45
2020/12/28 05:12:52;;;;;;;1.08;0.60;;;22.80;31.80;;;;;;6173046;28;83828;-45
2020/12/28 05:15:55;;;;;;;0.68;0.40;;;22.80;31.80;;;;;;6177954;28;80702;-45
2020/12/28 05:18:55;;;;;;;0.40;0.40;;;22.90;31.80;;;;;;6165307;28;80715;-45
2020/12/28 05:21:56;;;;;;;0.88;0.40;;;22.90;31.60;;;;;;6167820;28;80454;-45
2020/12/28 05:24:56;;;;;;;0.98;0.60;;;22.90;31.60;;;;;;6177521;28;80929;-45
2020/12/28 05:27:57;;;;;;;0.88;0.50;;;23.00;31.70;;;;;;6174105;27;83368;-46
2020/12/28 05:31:00;;;;;;;0.68;0.50;;;23.00;31.70;;;;;;6174311;28;80643;-44
2020/12/28 05:34:00;;;;;;;0.45;0.40;;;23.10;32.30;;;;;;6154563;28;81759;-45
2020/12/28 05:37:01;;;;;;;1.58;0.55;;;23.10;32.30;;;;;;6175624;28;81905;-45
2020/12/28 05:40:01;;;;;;;1.70;0.50;;;23.20;32.50;;;;;;6163875;28;80909;-45
2020/12/28 05:43:02;;;;;;;2.28;0.60;;;23.20;32.60;;;;;;6172015;28;82157;-46
2020/12/28 05:46:02;;;;;;;6.53;0.55;;;23.20;32.30;;;;;;6167237;28;80499;-48
2020/12/28 05:49:03;;;;;;;5.57;0.45;;;23.30;33.00;;;;;;6176829;27;81029;-47
2020/12/28 05:52:04;;;;;;;2.97;0.50;;;23.30;33.10;;;;;;6176738;28;81144;-45
2020/12/28 05:55:04;;;;;;;0.80;0.40;;;23.30;33.00;;;;;;6172936;28;80450;-45
2020/12/28 05:58:05;;;;;;;0.60;0.50;;;23.40;32.90;;;;;;6176026;28;80517;-45
2020/12/28 06:01:05;;;;;;;0.75;0.47;;;23.40;32.80;;;;;;6165517;28;80907;-45
2020/12/28 06:04:06;;;;;;;0.82;0.43;;;23.40;32.60;;;;;;6163559;28;81411;-46
2020/12/28 06:07:06;;;;;;;2.60;0.50;;;23.40;33.00;;;;;;6165998;28;80745;-47
2020/12/28 06:10:07;;;;;;;3.17;0.50;;;23.40;32.60;;;;;;6161190;28;82170;-46
2020/12/28 06:13:07;;;;;;;0.73;0.55;;;23.40;32.30;;;;;;6152569;28;80867;-44
2020/12/28 06:16:08;;;;;;;2.58;0.93;;;23.40;32.50;;;;;;6171956;28;81449;-44
2020/12/28 06:19:08;;;;;;;6.32;0.93;;;23.40;32.80;;;;;;6172980;27;81757;-45
2020/12/28 06:22:09;;;;;;;1.77;1.00;;;23.40;33.00;;;;;;6179141;28;80535;-44
2020/12/28 06:25:09;;;;;;;3.38;0.93;;;23.40;33.10;;;;;;6177752;28;83009;-44
2020/12/28 06:28:10;;;;;;;2.85;1.02;;;23.50;33.30;;;;;;6173742;28;81216;-45
2020/12/28 06:31:10;;;;;;;3.50;1.30;;;23.50;33.90;;;;;;6181134;28;80808;-45
2020/12/28 06:34:11;;;;;;;5.25;1.33;;;23.60;33.80;;;;;;6181666;27;80242;-45
2020/12/28 06:37:11;;;;;;;9.48;1.63;;;23.70;34.50;;;;;;6175800;28;80582;-47
2020/12/28 06:40:12;;;;;;;4.50;1.25;;;23.70;34.80;;;;;;6176124;27;81735;-47
2020/12/28 06:43:13;;;;;;;3.03;1.30;;;23.70;34.90;;;;;;6169048;28;81034;-45
2020/12/28 06:46:13;;;;;;;4.50;1.42;;;23.80;35.10;;;;;;6168040;28;83802;-47
2020/12/28 06:49:14;;;;;;;2.20;1.23;;;23.80;35.10;;;;;;6164071;28;81681;-44
2020/12/28 06:52:14;;;;;;;5.82;1.60;;;23.80;35.20;;;;;;6168936;28;81426;-43
2020/12/28 06:55:15;;;;;;;4.15;1.13;;;23.80;35.30;;;;;;6180021;27;80601;-44
2020/12/28 06:58:15;;;;;;;33.45;1.70;;;23.80;35.20;;;;;;6172039;28;80502;-48
2020/12/28 07:01:16;;;;;;;4.35;1.33;;;23.80;34.90;;;;;;6177897;28;81863;-46
2020/12/28 07:04:17;;;;;;;4.18;1.10;;;23.90;35.70;;;;;;6166887;28;80602;-45
2020/12/28 07:07:17;;;;;;;6.03;1.40;;;23.90;34.90;;;;;;6167047;28;82194;-46
2020/12/28 07:10:18;;;;;;;3.10;1.30;;;23.90;34.70;;;;;;6167400;28;80712;-45
2020/12/28 07:13:18;;;;;;;3.83;1.25;;;24.00;35.10;;;;;;6167230;28;81684;-44
2020/12/28 07:16:19;;;;;;;4.05;1.40;;;24.00;35.30;;;;;;6167087;28;81560;-45
2020/12/28 07:19:19;;;;;;;4.00;1.23;;;24.00;35.00;;;;;;6169473;28;80771;-44
2020/12/28 07:22:20;;;;;;;3.58;1.88;;;24.00;34.80;;;;;;6166573;28;80671;-43
2020/12/28 07:25:20;;;;;;;5.13;1.52;;;24.00;34.50;;;;;;6171206;28;82754;-44
2020/12/28 07:28:21;;;;;;;3.58;1.67;;;24.00;34.30;;;;;;6179048;28;80436;-44
2020/12/28 07:31:22;;;;;;;1.85;1.02;;;24.10;34.70;;;;;;6170418;28;81007;-44
2020/12/28 07:34:22;;;;;;;5.35;1.50;;;24.10;35.00;;;;;;6168159;28;80137;-44
2020/12/28 07:37:23;;;;;;;4.38;1.52;;;24.10;34.80;;;;;;6178271;28;80456;-44
2020/12/28 07:40:23;;;;;;;4.38;1.33;;;24.10;34.70;;;;;;6178121;27;80449;-45
2020/12/28 07:43:24;;;;;;;6.00;1.65;;;24.20;35.20;;;;;;6179709;28;81003;-45
2020/12/28 07:46:24;;;;;;;2.80;1.42;;;24.10;36.30;;;;;;6173283;28;81106;-46
2020/12/28 07:49:25;;;;;;;3.25;1.33;;;24.10;37.10;;;;;;6171847;28;83300;-44
2020/12/28 07:52:25;;;;;;;2.00;1.30;;;24.10;37.70;;;;;;6153279;28;81513;-45
2020/12/28 07:55:26;;;;;;;29.00;8.00;;;24.20;38.00;;;;;;6161418;28;82698;-44
2020/12/28 07:58:26;;;;;;;375.13;111.60;;;24.20;38.10;;;;;;6177432;28;81450;-45
2020/12/28 08:01:27;;;;;;;553.33;180.05;;;24.20;38.50;;;;;;6166487;28;85680;-49
2020/12/28 08:04:27;;;;;;;697.35;243.35;;;24.20;38.60;;;;;;6169809;28;85827;-46
2020/12/28 08:07:28;;;;;;;808.00;287.88;;;24.20;38.60;;;;;;6169429;28;85811;-45
2020/12/28 08:10:28;;;;;;;658.83;231.00;;;24.30;38.70;;;;;;6138436;28;86410;-44
2020/12/28 08:13:29;;;;;;;597.05;204.57;;;24.30;38.70;;;;;;6152557;28;86086;-43
2020/12/28 08:16:29;;;;;;;552.25;186.88;;;24.20;38.80;;;;;;6165872;28;86214;-44
2020/12/28 08:19:30;;;;;;;508.75;165.98;;;24.20;39.50;;;;;;6159985;28;92078;-45
2020/12/28 08:22:31;;;;;;;474.05;148.95;;;24.20;39.60;;;;;;6167809;27;85370;-45
2020/12/28 08:25:31;;;;;;;426.92;134.48;;;24.20;39.60;;;;;;6167919;28;85790;-45
2020/12/28 08:28:32;;;;;;;362.20;120.75;;;24.20;39.50;;;;;;6171229;28;85961;-46
2020/12/28 08:31:34;;;;;;;334.88;105.05;;;24.20;39.70;;;;;;6170166;28;86369;-45
2020/12/28 08:34:34;;;;;;;264.48;87.63;;;24.20;39.70;;;;;;6172134;28;86308;-46
2020/12/28 08:37:35;;;;;;;233.18;80.47;;;24.20;39.40;;;;;;6174401;28;85215;-45
2020/12/28 08:40:35;;;;;;;233.32;73.30;;;24.20;39.70;;;;;;6173603;28;84056;-44
2020/12/28 08:43:36;;;;;;;204.98;67.85;;;24.20;39.50;;;;;;6165806;28;83432;-45
2020/12/28 08:46:36;;;;;;;181.48;60.38;;;24.20;39.20;;;;;;6174390;28;83905;-47
2020/12/28 08:49:37;;;;;;;175.18;56.55;;;24.10;39.00;;;;;;6165346;28;83495;-44
2020/12/28 08:52:37;;;;;;;149.35;50.20;;;24.10;39.00;;;;;;6167921;28;85661;-44
2020/12/28 08:55:38;;;;;;;151.98;49.85;;;24.10;39.00;;;;;;6167891;28;83789;-44
2020/12/28 08:58:38;;;;;;;124.63;44.58;;;24.10;39.20;;;;;;6174268;28;83419;-47
2020/12/28 09:01:39;;;;;;;126.30;43.53;;;24.10;40.10;;;;;;6168424;28;83294;-46
2020/12/28 09:04:39;;;;;;;118.07;39.92;;;24.10;39.60;;;;;;6173517;27;83834;-45
2020/12/28 09:07:40;;;;;;;113.25;37.78;;;24.10;39.60;;;;;;6174151;28;83437;-45
2020/12/28 09:10:40;;;;;;;106.03;36.75;;;24.10;39.80;;;;;;6174530;28;83821;-44
2020/12/28 09:13:41;;;;;;;99.20;34.13;;;24.10;40.00;;;;;;6173772;28;83376;-45
2020/12/28 09:16:41;;;;;;;87.80;31.48;;;24.10;40.00;;;;;;6169454;28;85188;-44
2020/12/28 09:19:42;;;;;;;88.65;27.45;;;24.10;40.10;;;;;;6163740;28;83266;-44
2020/12/28 09:22:42;;;;;;;87.13;29.63;;;24.10;40.40;;;;;;6172529;28;83398;-45
2020/12/28 09:25:43;;;;;;;68.35;23.80;;;24.10;40.40;;;;;;6172593;28;83934;-49
2020/12/28 09:28:43;;;;;;;74.65;25.00;;;24.20;40.10;;;;;;6161669;28;83585;-49
2020/12/28 09:31:44;;;;;;;66.80;20.52;;;24.30;40.20;;;;;;6171274;28;83207;-45
2020/12/28 09:34:44;;;;;;;52.03;19.48;;;24.40;39.70;;;;;;6172236;28;83407;-44
2020/12/28 09:37:45;;;;;;;48.22;18.27;;;24.50;39.50;;;;;;6166926;28;83440;-45
2020/12/28 09:40:45;;;;;;;43.28;17.65;;;24.60;39.10;;;;;;6167155;28;83256;-46
2020/12/28 09:43:46;;;;;;;39.20;14.45;;;24.60;38.80;;;;;;6172945;28;83531;-44
2020/12/28 09:46:46;;;;;;;37.85;12.23;;;24.70;38.40;;;;;;6153119;28;83225;-43
2020/12/28 09:49:47;;;;;;;27.30;10.45;;;24.60;36.00;;;;;;6172072;28;83695;-43
2020/12/28 09:52:47;;;;;;;17.35;7.38;;;24.60;35.20;;;;;;6174779;27;85628;-43
2020/12/28 09:55:48;;;;;;;18.10;6.25;;;24.50;33.10;;;;;;6180629;28;83473;-43
2020/12/28 09:58:48;;;;;;;12.10;4.75;;;24.40;32.60;;;;;;6173387;28;80694;-42
2020/12/28 10:01:49;;;;;;;12.80;5.80;;;24.40;31.80;;;;;;6180714;28;80852;-42
2020/12/28 10:04:49;;;;;;;9.57;4.18;;;24.30;31.20;;;;;;6173795;28;82921;-45
2020/12/28 10:07:50;;;;;;;11.32;4.63;;;24.20;31.00;;;;;;6181759;28;80698;-42
2020/12/28 10:10:50;;;;;;;14.18;4.35;;;23.90;31.00;;;;;;6173968;28;80789;-43
2020/12/28 10:13:51;;;;;;;8.82;3.65;;;23.60;30.70;;;;;;6176530;28;80670;-42
2020/12/28 10:16:51;;;;;;;7.18;3.30;;;23.40;30.70;;;;;;6181080;27;80665;-43
2020/12/28 10:19:52;;;;;;;7.32;3.10;;;23.30;32.30;;;;;;6167648;28;80737;-43
2020/12/28 10:22:52;;;;;;;117.55;41.97;;;23.40;31.90;;;;;;6161962;28;81274;-43
2020/12/28 10:25:53;;;;;;;261.60;93.82;;;23.50;31.80;;;;;;6170705;28;83780;-47
2020/12/28 10:28:53;;;;;;;303.20;116.65;;;23.60;32.00;;;;;;6174753;28;84212;-44
2020/12/28 10:31:54;;;;;;;464.20;171.70;;;23.60;32.00;;;;;;6166258;28;85810;-44
2020/12/28 10:34:54;;;;;;;390.63;137.40;;;23.60;32.00;;;;;;6171705;28;86127;-44
2020/12/28 10:37:55;;;;;;;315.08;115.82;;;23.60;31.70;;;;;;6174602;28;85600;-43
2020/12/28 10:40:55;;;;;;;278.17;101.75;;;23.60;31.20;;;;;;6170372;27;85420;-43
2020/12/28 10:43:56;;;;;;;229.35;85.10;;;23.60;31.00;;;;;;6173065;28;86685;-42
2020/12/28 10:46:56;;;;;;;196.23;71.88;;;23.60;31.00;;;;;;6174086;28;85196;-42
2020/12/28 10:49:57;;;;;;;151.32;58.85;;;23.50;30.90;;;;;;6177214;28;83341;-42
2020/12/28 10:52:57;;;;;;;134.00;52.03;;;23.50;31.60;;;;;;6151964;27;84020;-42
2020/12/28 10:55:58;;;;;;;122.97;46.83;;;23.50;30.80;;;;;;6175419;28;83385;-43
2020/12/28 10:58:58;;;;;;;107.68;40.47;;;23.60;30.90;;;;;;6171528;28;83536;-43
2020/12/28 11:02:00;;;;;;;95.10;34.30;;;23.50;30.80;;;;;;6175405;28;83955;-42
2020/12/28 11:05:00;;;;;;;79.10;31.67;;;23.50;30.70;;;;;;6165993;28;83036;-44
2020/12/28 11:08:00;;;;;;;67.25;24.30;;;23.50;30.60;;;;;;6175080;28;83645;-45
2020/12/28 11:11:01;;;;;;;60.85;21.88;;;23.50;31.20;;;;;;6176973;28;83131;-43
2020/12/28 11:14:02;;;;;;;65.03;22.90;;;23.50;31.70;;;;;;6174912;28;83523;-42
2020/12/28 11:17:02;;;;;;;50.67;18.83;;;23.50;31.80;;;;;;6175386;28;83516;-42
2020/12/28 11:20:03;;;;;;;37.80;16.70;;;23.60;32.00;;;;;;6167152;28;85340;-43
2020/12/28 11:23:03;;;;;;;36.97;14.90;;;23.60;32.20;;;;;;6175000;28;84162;-45
2020/12/28 11:26:04;;;;;;;30.90;12.50;;;23.60;32.20;;;;;;6175642;28;84326;-43
2020/12/28 11:29:04;;;;;;;33.85;12.27;;;23.70;33.30;;;;;;6176580;28;83451;-42
2020/12/28 11:32:05;;;;;;;29.25;11.35;;;23.80;33.70;;;;;;6170461;28;84265;-43
2020/12/28 11:35:05;;;;;;;21.52;10.05;;;23.80;34.40;;;;;;6169856;28;83453;-44
2020/12/28 11:38:06;;;;;;;23.08;9.27;;;23.80;34.50;;;;;;6173860;28;84665;-42
2020/12/28 11:41:06;;;;;;;22.00;8.57;;;23.80;34.80;;;;;;6178731;28;82808;-44
2020/12/28 11:44:10;;;;;;;17.45;7.80;;;23.80;35.00;;;;;;6177969;28;80703;-44
2020/12/28 11:47:11;;;;;;;18.08;7.97;;;23.80;35.10;;;;;;6162402;28;81390;-43
2020/12/28 11:50:11;;;;;;;18.95;7.57;;;23.80;35.30;;;;;;6177234;28;81942;-43
2020/12/28 11:53:12;;;;;;;18.90;8.00;;;23.80;35.50;;;;;;6179147;27;81160;-42
2020/12/28 11:56:12;;;;;;;19.58;7.13;;;23.70;36.00;;;;;;6176043;28;80705;-44
2020/12/28 11:59:13;;;;;;;15.95;5.63;;;23.70;36.10;;;;;;6178519;27;80975;-43
2020/12/28 12:02:14;;;;;;;16.08;6.38;;;23.70;36.30;;;;;;6176552;28;80560;-43
2020/12/28 12:05:14;;;;;;;12.65;6.10;;;23.70;36.70;;;;;;6177524;28;81182;-43
2020/12/28 12:08:15;;;;;;;10.88;5.70;;;23.80;36.90;;;;;;6177667;28;80939;-43
2020/12/28 12:11:15;;;;;;;14.20;5.53;;;23.70;36.80;;;;;;6172017;28;80991;-42
2020/12/28 12:14:16;;;;;;;14.80;5.30;;;23.70;37.00;;;;;;6172332;28;81466;-42
2020/12/28 12:17:16;;;;;;;13.18;6.32;;;23.70;37.50;;;;;;6165453;28;80876;-42
2020/12/28 12:20:17;;;;;;;10.52;5.28;;;23.70;37.60;;;;;;6148932;27;81887;-43
2020/12/28 12:23:17;;;;;;;10.00;4.90;;;23.70;37.60;;;;;;6175702;28;80404;-43
2020/12/28 12:26:18;;;;;;;12.75;5.28;;;23.70;37.90;;;;;;6171281;27;81665;-43
2020/12/28 12:29:18;;;;;;;14.10;5.45;;;23.70;38.40;;;;;;6176923;28;81185;-43
2020/12/28 12:32:19;;;;;;;8.65;4.53;;;23.70;38.60;;;;;;6174356;28;80854;-42
2020/12/28 12:35:19;;;;;;;10.45;5.13;;;23.70;38.40;;;;;;6171418;28;81608;-42
2020/12/28 12:38:20;;;;;;;9.05;4.75;;;23.70;38.70;;;;;;6166191;28;80997;-44
2020/12/28 12:41:20;;;;;;;9.98;4.95;;;23.60;38.50;;;;;;6170553;28;80672;-43
2020/12/28 12:44:21;;;;;;;7.20;4.18;;;23.60;38.30;;;;;;6174037;28;82034;-42
2020/12/28 12:47:22;;;;;;;9.50;4.72;;;23.60;37.80;;;;;;6168581;28;81232;-44
2020/12/28 12:50:22;;;;;;;13.77;5.00;;;23.60;37.40;;;;;;6165577;27;80730;-43
2020/12/28 12:53:22;;;;;;;9.55;4.88;;;23.60;37.20;;;;;;6160326;28;80642;-42
2020/12/28 12:56:23;;;;;;;8.68;4.38;;;23.50;36.90;;;;;;6163969;28;81683;-44
2020/12/28 12:59:23;;;;;;;6.50;3.90;;;23.50;36.80;;;;;;6176865;28;82121;-43
2020/12/28 13:02:24;;;;;;;8.55;4.13;;;23.50;36.70;;;;;;6166066;28;80898;-43
2020/12/28 13:05:24;;;;;;;9.65;4.63;;;23.50;36.70;;;;;;6166049;27;81189;-44
2020/12/28 13:08:25;;;;;;;8.70;4.25;;;23.50;36.80;;;;;;6166702;28;83588;-44
2020/12/28 13:11:25;;;;;;;8.73;4.90;;;23.50;36.60;;;;;;6166877;27;80849;-44
2020/12/28 13:14:26;;;;;;;7.95;4.57;;;23.50;36.60;;;;;;6165194;28;80474;-44
2020/12/28 13:17:26;;;;;;;7.82;4.55;;;23.40;36.00;;;;;;6167083;28;80314;-44
2020/12/28 13:20:27;;;;;;;6.13;3.50;;;23.40;35.50;;;;;;6163550;28;80662;-44
2020/12/28 13:23:28;;;;;;;5.82;3.67;;;23.50;34.60;;;;;;6173371;28;80637;-44
2020/12/28 13:26:28;;;;;;;8.18;3.50;;;23.50;33.70;;;;;;6169463;28;80504;-44
2020/12/28 13:29:29;;;;;;;5.60;3.33;;;23.50;33.70;;;;;;6179585;27;80787;-44
2020/12/28 13:32:29;;;;;;;6.35;3.15;;;23.50;33.70;;;;;;6180536;28;83380;-44
2020/12/28 13:35:30;;;;;;;6.55;3.35;;;23.50;33.10;;;;;;6171816;28;82186;-44
2020/12/28 13:38:30;;;;;;;6.43;2.75;;;23.60;32.80;;;;;;6180503;28;81804;-44
2020/12/28 13:41:31;;;;;;;6.32;2.85;;;23.60;32.10;;;;;;6181691;28;81322;-43
2020/12/28 13:44:31;;;;;;;4.63;2.55;;;23.60;32.10;;;;;;6178166;28;81608;-42
2020/12/28 13:47:32;;;;;;;3.20;2.03;;;23.60;31.30;;;;;;6178750;28;81836;-44
2020/12/28 13:50:32;;;;;;;6.45;2.40;;;23.60;31.50;;;;;;6179680;28;80522;-44
2020/12/28 13:53:33;;;;;;;4.47;2.25;;;23.60;31.30;;;;;;6172703;28;81452;-44
2020/12/28 13:56:33;;;;;;;3.80;1.83;;;23.60;30.50;;;;;;6168133;28;80609;-44
2020/12/28 13:59:38;;;;;;;4.15;2.20;;;23.60;30.50;;;;;;6178624;27;81417;-44
2020/12/28 14:02:39;;;;;;;3.38;1.90;;;23.70;30.60;;;;;;6170399;28;80999;-43
2020/12/28 14:05:39;;;;;;;5.82;2.05;;;23.70;30.60;;;;;;6165646;27;81156;-44
2020/12/28 14:08:40;;;;;;;3.63;1.80;;;23.70;30.10;;;;;;6187796;28;81232;-45
2020/12/28 14:11:40;;;;;;;6.57;2.08;;;23.70;30.20;;;;;;6176480;27;80376;-44
2020/12/28 14:14:41;;;;;;;4.30;1.90;;;23.70;30.00;;;;;;6183378;28;80733;-45
2020/12/28 14:17:41;;;;;;;3.58;1.92;;;23.70;30.00;;;;;;6191025;28;80933;-44
2020/12/28 14:20:42;;;;;;;2.97;1.67;;;23.70;30.10;;;;;;6185360;28;80730;-44
2020/12/28 14:23:42;;;;;;;3.75;1.88;;;23.80;30.90;;;;;;6183426;28;80900;-42
2020/12/28 14:26:43;;;;;;;3.65;1.30;;;23.80;30.90;;;;;;6188783;28;80309;-42
2020/12/28 14:29:43;;;;;;;4.57;1.55;;;23.80;30.90;;;;;;6189124;28;80889;-42
2020/12/28 14:32:44;;;;;;;4.70;1.75;;;23.80;31.10;;;;;;6192037;28;80420;-45
2020/12/28 14:35:44;;;;;;;2.13;1.60;;;23.80;31.10;;;;;;6180894;27;81265;-42
2020/12/28 14:38:45;;;;;;;3.92;1.73;;;23.90;31.50;;;;;;6178516;28;80782;-42
2020/12/28 14:41:45;;;;;;;3.75;1.50;;;23.90;31.90;;;;;;6182717;28;80552;-41
2020/12/28 14:44:46;;;;;;;2.00;1.30;;;23.90;32.00;;;;;;6187862;27;81299;-44
2020/12/28 14:47:46;;;;;;;2.22;1.33;;;23.90;32.20;;;;;;6190916;28;81542;-45
2020/12/28 14:50:47;;;;;;;3.47;1.48;;;23.90;32.20;;;;;;6180827;28;80920;-43
2020/12/28 14:53:47;;;;;;;4.35;1.83;;;23.90;32.40;;;;;;6183486;28;81204;-42
2020/12/28 14:56:48;;;;;;;4.03;1.90;;;23.90;32.60;;;;;;6180806;28;81229;-41
2020/12/28 14:59:49;;;;;;;1.70;1.20;;;23.90;32.20;;;;;;6185542;27;81369;-42
2020/12/28 15:02:49;;;;;;;2.75;1.85;;;23.90;32.40;;;;;;6188583;28;81229;-42
2020/12/28 15:05:50;;;;;;;3.65;1.88;;;23.90;32.20;;;;;;6190477;27;80716;-42
2020/12/28 15:08:50;;;;;;;8.60;2.10;;;23.90;32.30;;;;;;6188149;28;80698;-44
2020/12/28 15:11:51;;;;;;;4.72;2.80;;;23.90;32.70;;;;;;6185061;27;80891;-44
2020/12/28 15:14:51;;;;;;;5.63;2.75;;;23.90;32.90;;;;;;6175744;28;80809;-47
2020/12/28 15:17:52;;;;;;;5.65;3.05;;;23.90;32.90;;;;;;6177845;28;83671;-46
2020/12/28 15:20:52;;;;;;;5.57;3.17;;;23.90;32.90;;;;;;6179715;28;81461;-46
2020/12/28 15:23:53;;;;;;;6.60;3.65;;;23.90;32.60;;;;;;6177169;27;80940;-47
2020/12/28 15:26:53;;;;;;;10.65;4.45;;;23.90;32.50;;;;;;6179284;28;81423;-46
2020/12/28 15:29:54;;;;;;;8.32;3.55;;;23.90;32.70;;;;;;6177163;27;80542;-46
2020/12/28 15:33:13;;;;;;;7.80;4.32;;;23.90;32.80;;;;;;6173424;28;80326;-46
2020/12/28 15:36:14;;;;;;;5.68;3.63;;;23.80;33.10;;;;;;6169912;28;81340;-44
2020/12/28 15:39:15;;;;;;;8.70;3.83;;;23.80;32.70;;;;;;6178217;28;80679;-43
2020/12/28 15:42:17;;;;;;;6.55;3.70;;;23.90;33.20;;;;;;6158593;28;80586;-44